Tiempo atmosférico en la estación meteorológica de Olmedo, Depósito de Agua, Valladolid (786 m.)



Fecha
DESCASC
Temp. máxima en grados centígrados (hora)
DESCASC
Temp. mínima en grados centígrados (hora)
DESCASC
Temp. media en grados centígrados
DESCASC
Racha de viento máxima en m/sg (hora)
DESCASC
Velocidad máxima media en intervalos de 10 minutos(hora)
DESCASC
Precipitaciones diarias en mm
DESCASC
Precipitaciones de 00:00 a 06:00 en mm
DESCASC
Precipitaciones de 06:00 a 12:00 en mm
DESCASC
Precipitaciones de 12:00 a 18:00 en mm
DESCASC
Precipitaciones de 18:00 a 24:00 en mm
DESCASC
22-01-2020 10.2 (14:50) 2.5 (08:40) 6.3 11.67 (03:00) 7.78 (05:30) 0.2 0.2 0 0 0
21-01-2020 5.4 (15:00) -0.3 (01:00) 2.6 15 (17:00) 10 (17:00) 0.6 0 0 0.6 0
20-01-2020 3.2 (16:30) -0.9 (08:40) 1.2 16.67 (11:10) 10.28 (11:10) 0 0 0 0 0
19-01-2020 6.5 (15:00) 1.2 (00:00) 3.9 20.83 (16:00) 13.33 (16:00) 0.2 0 0.2 0 0
18-01-2020 11.8 (15:20) 3.1 (00:00) 7.5 16.94 (16:50) 13.06 (16:50) 1.8 0 0.6 0.2 1
17-01-2020 9.9 (15:30) 3.7 (00:00) 6.8 11.39 (05:00) 8.33 (05:00) 1.6 0 1.6 0 0
16-01-2020 13.2 (13:30) 3.9 (00:00) 8.5 14.44 (20:50) 9.72 (23:50) 0.6 0 0 0 0.6
15-01-2020 10.4 (15:10) 3.1 (00:00) 6.7 10.56 (16:30) 6.67 (16:50) 1.8 0 1 0.8 0
14-01-2020 10 (15:20) -2.5 (-00:0) 3.8 12.5 (14:30) 7.22 (14:30) 0 0 0 0 0
13-01-2020 8.1 (16:50) -5.1 (-00:0) 1.5 6.67 (21:40) 5.56 (21:30) 0.2 0 0.2 0 0
12-01-2020 1.8 (16:20) -6.1 (09:10) -2.1 3.33 (16:50) 1.94 (18:40) 0.2 0 0.2 0 0
11-01-2020 1.3 (00:00) -3.7 (-00:0) -1.2 3.61 (07:10) 3.06 (07:10) 0 0 0 0 0
10-01-2020 8.4 (16:20) -1.7 (-00:0) 3.3 6.94 (00:20) 3.89 (00:20) 0.2 0 0.2 0 0
09-01-2020 11.8 (16:40) -0.5 (-00:0) 5.7 8.06 (15:50) 6.11 (15:40) 0 0 0 0 0
08-01-2020 6.1 (16:40) -4.2 (-00:0) 1 3.89 (15:00) 2.5 (15:00) 0.2 0 0.2 0 0
07-01-2020 0.6 (15:00) -3.2 (-00:0) -1.3 3.06 (16:20) 1.67 (17:20) 0.2 0 0 0.2 0
06-01-2020 2.6 (15:30) -2.9 (-00:0) -0.2 4.44 (15:40) 2.5 (15:40) 0.2 0 0 0.2 0
05-01-2020 1.8 (00:00) -3.4 (-00:0) -0.8 2.5 (19:10) 1.67 (06:10) 0 0 0 0 0
04-01-2020 7.1 (16:10) 0.8 (00:00) 3.9 5.28 (19:00) 3.06 (19:00) 0 0 0 0 0
03-01-2020 7.7 (15:40) 0.3 (00:00) 4 6.11 (09:40) 4.72 (09:10) 0 0 0 0 0
02-01-2020 11.3 (16:00) -5.1 (-00:0) 3.1 3.06 (22:30) 2.78 (01:30) 0.2 0 0.2 0 0
01-01-2020 7.6 (15:20) -5 (-00:0) 1.3 3.89 (16:20) 3.06 (00:30) 0 0 0 0 0
31-12-2019 9.2 (16:20) -2.9 (-00:0) 3.1 5 (02:30) 4.17 (02:10) 0.2 0 0.2 0 0
30-12-2019 -- (--) -- (--) -- -- (--) -- (--) -- 0 0.2 0 --
29-12-2019 10.2 (16:00) -3 (-00:0) 3.6 3.89 (02:00) 3.06 (01:40) 0 0 0 0 0
28-12-2019 6.6 (17:00) -3.4 (-00:0) 1.6 3.61 (14:20) 2.78 (23:59) 0.2 0 0 0.2 0
27-12-2019 3 (00:00) -1.6 (-00:0) 0.7 3.89 (00:10) 3.33 (00:10) 0.2 0 0 0.2 0

Gráficas

Temp. máximas Temp. mínimas Temp. medias Precipitaciones Rachas de viento máximas Velocidades máximas media en intervalos de 10 minutos

Datos horarios

Fecha y hora oficial Temperatura (ºC) Velocidad del viento (km/h) Dirección del viento Racha (km/h) Dirección de racha Precipitación (mm) Presión (hPa) Tendencia (hPa) Humedad (%)
2020-01-25 23:00:00 4.9 5 Sudoeste 8 Sudoeste 0 -- -- 96
2020-01-25 22:00:00 5.6 4 Oeste 6 Sudoeste 0 -- -- 95
2020-01-25 21:00:00 5.9 4 Oeste 12 Noroeste 0 -- -- 95
2020-01-25 20:00:00 6.1 6 Noroeste 11 Noroeste 0 -- -- 92
2020-01-25 19:00:00 6.8 8 Noroeste 13 Noroeste 0 -- -- 89
2020-01-25 18:00:00 7.6 8 Noroeste 16 Noroeste 0 -- -- 82
2020-01-25 17:00:00 8.8 10 Oeste 17 Noroeste 0 -- -- 77
2020-01-25 16:00:00 9 10 Noroeste 18 Oeste 0 -- -- 78
2020-01-25 15:00:00 9.6 12 Oeste 18 Oeste 0 -- -- 73
2020-01-25 14:00:00 8.6 7 Oeste 11 Oeste 0 -- -- 84
2020-01-25 13:00:00 7.3 0 Calma 9 Nordeste 0.2 -- -- 90
2020-01-25 12:00:00 6 7 Nordeste 11 Nordeste 0 -- -- 94
2020-01-25 11:00:00 4.5 4 Nordeste 8 Norte 0 -- -- 98
2020-01-25 10:00:00 3.2 4 Nordeste 8 Nordeste 0 -- -- 97
2020-01-25 09:00:00 2.8 5 Nordeste 11 Este 0.4 -- -- 96
2020-01-25 08:00:00 2.7 8 Este 17 Este 0.4 -- -- 95
2020-01-25 07:00:00 2.6 13 Este 16 Este 0.2 -- -- 95
2020-01-25 06:00:00 2.6 9 Este 13 Sudeste 0.2 -- -- 96
2020-01-25 05:00:00 2.7 11 Este 17 Sudeste 0 -- -- 95
2020-01-25 04:00:00 1.8 10 Este 14 Sudeste 0 -- -- 98
2020-01-25 03:00:00 1.7 9 Este 17 Este 0 -- -- 97
2020-01-25 02:00:00 2 9 Este 11 Sudeste 0 -- -- 97
2020-01-25 01:00:00 2.4 11 Sudeste 13 Sudeste 0 -- -- 96
2020-01-25 00:00:00 3.6 10 Este 12 Sudeste 0 -- -- 96
2020-01-24 23:00:00 4 8 Sudeste 19 Sudeste 0 -- -- 96
2020-01-24 22:00:00 4.4 5 Sudeste 11 Sudeste 0 -- -- 96
2020-01-24 21:00:00 4.8 8 Sudeste 9 Sudeste 0 -- -- 96
2020-01-24 20:00:00 5.9 4 Este 5 Este 0 -- -- 94
2020-01-24 19:00:00 6.4 4 Este 5 Este 0 -- -- 92
2020-01-24 18:00:00 6.9 3 Norte 8 Noroeste 0 -- -- 91
2020-01-24 17:00:00 7.4 5 Noroeste 9 Noroeste 0 -- -- 88
2020-01-24 16:00:00 7.4 5 Noroeste 11 Noroeste 0 -- -- 89
2020-01-24 15:00:00 6.7 8 Este 13 Este 0.8 -- -- 94
2020-01-24 14:00:00 6.6 8 Este 14 Este 0 -- -- 92
2020-01-24 13:00:00 5.1 10 Este 14 Este 0.2 -- -- 96
2020-01-24 12:00:00 3.6 9 Este 12 Sudeste 1.4 -- -- 95
2020-01-24 11:00:00 3.5 6 Este 8 Sudeste 0.6 -- -- 92
2020-01-24 10:00:00 3.3 5 Este 12 Este 0 -- -- 91
2020-01-24 09:00:00 2.7 9 Este 10 Este 0 -- -- 91
2020-01-24 08:00:00 2.7 8 Sudeste 13 Este 0 -- -- 90
2020-01-24 07:00:00 2.7 9 Sudeste 14 Sudeste 0 -- -- 89
2020-01-24 06:00:00 2.3 11 Sudeste 14 Este 0 -- -- 90
2020-01-24 05:00:00 2.1 12 Sudeste 21 Este 0 -- -- 90
2020-01-24 04:00:00 1.9 14 Sudeste 19 Sudeste 0 -- -- 89
2020-01-24 03:00:00 1.8 13 Este 16 Este 0 -- -- 89
2020-01-24 02:00:00 3.3 10 Sudeste 19 Este 0 -- -- 87
2020-01-24 01:00:00 3 11 Este 15 Sudeste 0 -- -- 86
2020-01-24 00:00:00 3.6 10 Sudeste 15 Sudeste 0 -- -- 82
2020-01-23 23:00:00 4.3 10 Sudeste 20 Sudeste 0 -- -- 81
2020-01-23 22:00:00 4.2 7 Sudeste 20 Sudeste 0 -- -- 84
2020-01-23 21:00:00 4.6 9 Sudeste 24 Sudeste 0 -- -- 80
2020-01-23 20:00:00 5.4 18 Sudeste 24 Sudeste 0 -- -- 78
2020-01-23 19:00:00 6.4 13 Sudeste 28 Sudeste 0 -- -- 73
2020-01-23 18:00:00 8.3 22 Sudeste 30 Sur 0 -- -- 65
2020-01-23 17:00:00 10 19 Sur 32 Sur 0 -- -- 59
2020-01-23 16:00:00 10.8 22 Sur 31 Sur 0 -- -- 56
2020-01-23 15:00:00 10 17 Sudeste 22 Sudeste 0 -- -- 63
2020-01-23 14:00:00 6.7 4 Este 9 Este 0 -- -- 76
2020-01-23 13:00:00 3.9 5 Nordeste 11 Este 0 -- -- 85
2020-01-23 12:00:00 2.1 9 Este 22 Este 0 -- -- 89
2020-01-23 11:00:00 0.9 15 Este 19 Este 0 -- -- 91
2020-01-23 10:00:00 0.6 10 Este 15 Este 0 -- -- 92
2020-01-23 09:00:00 -0.7 9 Este 21 Este 0 -- -- 94
2020-01-23 08:00:00 -0.7 13 Este 17 Este 0 -- -- 94
2020-01-23 07:00:00 -0.5 8 Este 13 Nordeste 0 -- -- 95
2020-01-23 06:00:00 -0.1 5 Este 10 Este 0 -- -- 94
2020-01-23 05:00:00 0.5 9 Este 16 Este 0 -- -- 92
2020-01-23 04:00:00 1.7 6 Este 15 Este 0 -- -- 91
2020-01-23 03:00:00 2.1 14 Este 20 Sudeste 0 -- -- 90
2020-01-23 02:00:00 2.6 12 Este 19 Este 0 -- -- 87
2020-01-23 01:00:00 3 9 Este 18 Este 0 -- -- 85
2020-01-23 00:00:00 3.8 11 Este 15 Este 0 -- -- 83
2020-01-22 23:00:00 4.1 11 Este 18 Sudeste 0 -- -- 83
2020-01-22 22:00:00 4.6 15 Este 25 Este 0 -- -- 81
2020-01-22 21:00:00 5.1 14 Este 19 Este 0 -- -- 81
2020-01-22 20:00:00 5.5 12 Este 16 Este 0 -- -- 80
2020-01-22 19:00:00 6.2 12 Este 22 Este 0 -- -- 77
2020-01-22 18:00:00 7.8 5 Nordeste 9 Este 0 -- -- 70
2020-01-22 17:00:00 9.3 6 Sudeste 18 Este 0 -- -- 60
2020-01-22 16:00:00 9.7 12 Este 18 Este 0 -- -- 61
2020-01-22 15:00:00 10.1 10 Sudeste 22 Sudeste 0 -- -- 58
2020-01-22 14:00:00 10 19 Sudeste 29 Sudeste 0 -- -- 60
2020-01-22 13:00:00 8.2 14 Este 24 Este 0 -- -- 70
2020-01-22 12:00:00 6 15 Este 25 Este 0 -- -- 81
2020-01-22 11:00:00 3.9 15 Este 25 Este 0 -- -- 87
2020-01-22 10:00:00 3.1 13 Este 27 Este 0 -- -- 88
2020-01-22 09:00:00 2.6 18 Este 27 Este 0 -- -- 89
2020-01-22 08:00:00 2.9 16 Este 28 Este 0 -- -- 87
2020-01-22 07:00:00 3.1 18 Este 34 Nordeste 0 -- -- 87
2020-01-22 06:00:00 3.2 17 Nordeste 42 Nordeste 0 -- -- 88
2020-01-22 05:00:00 3.2 19 Nordeste 37 Nordeste 0 -- -- 89
2020-01-22 04:00:00 3.2 21 Nordeste 40 Nordeste 0.2 -- -- 91
2020-01-22 03:00:00 3.3 27 Nordeste 42 Nordeste 0 -- -- 87
2020-01-22 02:00:00 3 18 Nordeste 37 Nordeste 0 -- -- 87
2020-01-22 01:00:00 3.2 22 Nordeste 39 Este 0 -- -- 86
2020-01-22 00:00:00 3.6 21 Nordeste 35 Nordeste 0 -- -- 85
2020-01-21 23:00:00 3 17 Nordeste 39 Nordeste 0 -- -- 86
2020-01-21 22:00:00 2.6 24 Nordeste 37 Nordeste 0 -- -- 85
2020-01-21 21:00:00 2.4 23 Nordeste 34 Nordeste 0 -- -- 86
2020-01-21 20:00:00 2.6 21 Nordeste 33 Nordeste 0 -- -- 86
2020-01-21 19:00:00 2.5 21 Nordeste 37 Nordeste 0 -- -- 85
2020-01-21 18:00:00 3 20 Nordeste 43 Nordeste 0.6 -- -- 90
2020-01-21 17:00:00 4.1 36 Nordeste 54 Nordeste 0 -- -- 79
2020-01-21 16:00:00 4.6 31 Nordeste 51 Nordeste 0 -- -- 76
2020-01-21 15:00:00 5.4 26 Nordeste 47 Este 0 -- -- 71
2020-01-21 14:00:00 4.2 25 Nordeste 39 Nordeste 0 -- -- 73
2020-01-21 13:00:00 3.8 23 Nordeste 44 Nordeste 0 -- -- 75
2020-01-21 12:00:00 3.7 28 Nordeste 47 Nordeste 0 -- -- 76
2020-01-21 11:00:00 2.4 27 Nordeste 45 Nordeste 0 -- -- 77
2020-01-21 10:00:00 1.1 20 Nordeste 34 Nordeste 0 -- -- 78
2020-01-21 09:00:00 0.5 15 Nordeste 37 Nordeste 0 -- -- 81
2020-01-21 08:00:00 0.4 17 Nordeste 30 Nordeste 0 -- -- 80
2020-01-21 07:00:00 0.5 18 Nordeste 33 Nordeste 0 -- -- 77
2020-01-21 06:00:00 1 16 Nordeste 32 Nordeste 0 -- -- 74
2020-01-21 05:00:00 0.7 17 Nordeste 32 Nordeste 0 -- -- 75
2020-01-21 04:00:00 0.4 17 Nordeste 35 Nordeste 0 -- -- 78
2020-01-21 03:00:00 0 21 Nordeste 33 Nordeste 0 -- -- 80
2020-01-21 02:00:00 -0.1 21 Nordeste 39 Nordeste 0 -- -- 78
2020-01-21 01:00:00 -0.3 14 Nordeste 32 Nordeste 0 -- -- 77
2020-01-21 00:00:00 0.3 20 Nordeste 31 Nordeste 0 -- -- 74
2020-01-20 23:00:00 0.2 19 Nordeste 32 Nordeste 0 -- -- 71
2020-01-20 22:00:00 0.6 17 Nordeste 37 Nordeste 0 -- -- 69
2020-01-20 21:00:00 0.9 21 Nordeste 34 Nordeste 0 -- -- 67
2020-01-20 20:00:00 1 23 Nordeste 42 Nordeste 0 -- -- 66
2020-01-20 19:00:00 1.2 23 Nordeste 44 Nordeste 0 -- -- 66
2020-01-20 18:00:00 1.7 23 Nordeste 39 Nordeste 0 -- -- 63
2020-01-20 17:00:00 2.4 29 Nordeste 48 Nordeste 0 -- -- 58
2020-01-20 16:00:00 2.7 24 Nordeste 50 Nordeste 0 -- -- 57
2020-01-20 15:00:00 2.4 30 Nordeste 47 Nordeste 0 -- -- 57
2020-01-20 14:00:00 2.3 24 Nordeste 45 Nordeste 0 -- -- 55
2020-01-20 13:00:00 2.2 27 Nordeste 53 Nordeste 0 -- -- 55
2020-01-20 12:00:00 1.7 31 Nordeste 60 Nordeste 0 -- -- 56
2020-01-20 11:00:00 0.8 31 Nordeste 55 Nordeste 0 -- -- 61
2020-01-20 10:00:00 -0.4 31 Nordeste 50 Nordeste 0 -- -- 67
2020-01-20 09:00:00 -0.8 33 Nordeste 53 Nordeste 0 -- -- 68
2020-01-20 08:00:00 -0.7 32 Nordeste 54 Nordeste 0 -- -- 68
2020-01-20 07:00:00 -0.7 28 Nordeste 53 Nordeste 0 -- -- 68
2020-01-20 06:00:00 -0.6 27 Nordeste 50 Nordeste 0 -- -- 68
2020-01-20 05:00:00 -0.3 30 Nordeste 53 Nordeste 0 -- -- 66
2020-01-20 04:00:00 -0.1 30 Nordeste 54 Nordeste 0 -- -- 66
2020-01-20 03:00:00 0.1 28 Nordeste 50 Nordeste 0 -- -- 66
2020-01-20 02:00:00 0.4 23 Nordeste 44 Nordeste 0 -- -- 65
2020-01-20 01:00:00 0.8 27 Nordeste 45 Este 0 -- -- 65
2020-01-20 00:00:00 1.3 33 Nordeste 57 Nordeste 0 -- -- 61
2020-01-19 23:00:00 1.4 34 Nordeste 57 Nordeste 0 -- -- 60
2020-01-19 22:00:00 1.4 31 Nordeste 50 Nordeste 0 -- -- 62
2020-01-19 21:00:00 1.5 29 Nordeste 51 Nordeste 0 -- -- 62
2020-01-19 20:00:00 1.7 31 Nordeste 57 Nordeste 0 -- -- 60
2020-01-19 19:00:00 2.5 37 Nordeste 60 Nordeste 0 -- -- 55
2020-01-19 18:00:00 4 34 Nordeste 73 Nordeste 0 -- -- 50
2020-01-19 17:00:00 5.2 41 Nordeste 69 Nordeste 0 -- -- 53
2020-01-19 16:00:00 5.9 48 Nordeste 75 Norte 0 -- -- 50
2020-01-19 15:00:00 6.5 36 Nordeste 71 Nordeste 0 -- -- 53
2020-01-19 14:00:00 5.7 45 Nordeste 72 Nordeste 0 -- -- 57
2020-01-19 13:00:00 5.7 46 Nordeste 71 Nordeste 0 -- -- 62
2020-01-19 12:00:00 4.3 34 Nordeste 67 Nordeste 0 -- -- 71
2020-01-19 11:00:00 4.9 42 Nordeste 62 Norte 0.2 -- -- 73
2020-01-19 10:00:00 4.2 25 Norte 44 Norte 0 -- -- 84
2020-01-19 09:00:00 3 19 Norte 30 Norte 0 -- -- 94
2020-01-19 08:00:00 1.9 10 Norte 16 Norte 0 -- -- 97
2020-01-19 07:00:00 1.6 8 Norte 13 Norte 0 -- -- 97
2020-01-19 06:00:00 1.6 8 Norte 12 Noroeste 0 -- -- 97
2020-01-19 05:00:00 1.2 3 Sudoeste 13 Noroeste 0 -- -- 96
2020-01-19 04:00:00 2.4 5 Noroeste 12 Noroeste 0 -- -- 95
2020-01-19 03:00:00 3.2 9 Noroeste 13 Noroeste 0 -- -- 94
2020-01-19 02:00:00 3.2 6 Noroeste 14 Oeste 0 -- -- 95
2020-01-19 01:00:00 3.8 8 Oeste 16 Oeste 0 -- -- 95
2020-01-19 00:00:00 4.7 7 Oeste 17 Noroeste 0 -- -- 94
2020-01-18 23:00:00 5.3 9 Oeste 23 Noroeste 0 -- -- 90
2020-01-18 22:00:00 5.5 12 Oeste 23 Oeste 0 -- -- 85
2020-01-18 21:00:00 6.9 20 Noroeste 40 Oeste 0 -- -- 84
2020-01-18 20:00:00 7.9 23 Oeste 40 Oeste 0 -- -- 85
2020-01-18 19:00:00 8.4 18 Oeste 56 Sudoeste 1 -- -- 93
2020-01-18 18:00:00 10 37 Sudoeste 59 Sudoeste 0 -- -- 84
2020-01-18 17:00:00 11.3 42 Sudoeste 61 Sudoeste 0 -- -- 80
2020-01-18 16:00:00 11.4 40 Sudoeste 57 Sudoeste 0 -- -- 81
2020-01-18 15:00:00 11.5 33 Sudoeste 54 Sudoeste 0 -- -- 81
2020-01-18 14:00:00 11.5 40 Sudoeste 50 Sudoeste 0 -- -- 81
2020-01-18 13:00:00 9.4 19 Sudoeste 34 Sudoeste 0.2 -- -- 90
2020-01-18 12:00:00 7.9 17 Sur 23 Sur 0 -- -- 92
2020-01-18 11:00:00 6.6 15 Sur 23 Sudeste 0.2 -- -- 92
2020-01-18 10:00:00 5.9 14 Sudeste 19 Sudeste 0 -- -- 89
2020-01-18 09:00:00 5 12 Sur 14 Sur 0.4 -- -- 91
2020-01-18 08:00:00 5.1 13 Sur 15 Sur 0 -- -- 89
2020-01-18 07:00:00 5 14 Sur 22 Sur 0 -- -- 91
2020-01-18 06:00:00 4.6 18 Sur 23 Sur 0 -- -- 93
2020-01-18 05:00:00 3.4 9 Sudeste 18 Sur 0 -- -- 93
2020-01-18 04:00:00 3.3 10 Sudeste 13 Sur 0 -- -- 92
2020-01-18 03:00:00 3.4 3 Sudeste 8 Sudeste 0 -- -- 91
2020-01-18 02:00:00 3.3 6 Sudeste 9 Sudoeste 0 -- -- 90
2020-01-18 01:00:00 3.1 6 Sudoeste 11 Nordeste 0 -- -- 92
2020-01-18 00:00:00 3.9 9 Sudeste 13 Este 0 -- -- 91
2020-01-17 23:00:00 4.4 6 Sudeste 9 Este 0 -- -- 86
2020-01-17 22:00:00 4.6 5 Este 10 Nordeste 0 -- -- 87
2020-01-17 21:00:00 5.6 3 Sudoeste 3 Sudoeste 0 -- -- 79
2020-01-17 20:00:00 5.9 2 Oeste 4 Norte 0 -- -- 78
2020-01-17 19:00:00 6.7 0 Calma 9 Noroeste 0 -- -- 75
2020-01-17 18:00:00 7.8 6 Noroeste 17 Noroeste 0 -- -- 73
2020-01-17 17:00:00 9.2 9 Oeste 21 Oeste 0 -- -- 66
2020-01-17 16:00:00 9.5 13 Noroeste 30 Noroeste 0 -- -- 66
2020-01-17 15:00:00 9.7 16 Oeste 30 Oeste 0 -- -- 66
2020-01-17 14:00:00 9 18 Oeste 35 Oeste 0 -- -- 73
2020-01-17 13:00:00 8.6 18 Oeste 33 Oeste 0 -- -- 77
2020-01-17 12:00:00 8.2 18 Oeste 33 Oeste 0 -- -- 83
2020-01-17 11:00:00 7.1 14 Oeste 26 Oeste 0 -- -- 94
2020-01-17 10:00:00 6.2 15 Sudoeste 23 Sudoeste 0 -- -- 96
2020-01-17 09:00:00 5.7 13 Oeste 25 Noroeste 1.2 -- -- 96
2020-01-17 08:00:00 6 13 Oeste 34 Sudoeste 0.2 -- -- 93
2020-01-17 07:00:00 6 24 Sudoeste 37 Sudoeste 0.2 -- -- 93
2020-01-17 06:00:00 6.1 23 Sudoeste 40 Sudoeste 0 -- -- 90
2020-01-17 05:00:00 6.3 30 Sudoeste 41 Sudoeste 0 -- -- 87
2020-01-17 04:00:00 6 23 Sudoeste 34 Sudoeste 0 -- -- 93
2020-01-17 03:00:00 5.5 23 Sudoeste 28 Sudoeste 0 -- -- 93
2020-01-17 02:00:00 6.4 18 Sudoeste 30 Sudoeste 0 -- -- 89
2020-01-17 01:00:00 7.6 23 Sudoeste 39 Sudoeste 0 -- -- 81
2020-01-17 00:00:00 7.5 32 Sudoeste 52 Sudoeste 0 -- -- 79
2020-01-16 23:00:00 7.8 26 Sudoeste 36 Sudoeste 0 -- -- 76
2020-01-16 22:00:00 7.3 15 Sudoeste 30 Sudoeste 0.2 -- -- 76
2020-01-16 21:00:00 8 26 Sudoeste 52 Sudoeste 0.4 -- -- 73
2020-01-16 20:00:00 8.1 21 Sudoeste 29 Sudoeste 0 -- -- 64
2020-01-16 19:00:00 7.5 10 Sur 18 Oeste 0 -- -- 82
2020-01-16 18:00:00 9.1 11 Oeste 23 Sudoeste 0 -- -- 76
2020-01-16 17:00:00 10.3 14 Oeste 29 Sudoeste 0 -- -- 69
2020-01-16 16:00:00 12.1 17 Oeste 28 Oeste 0 -- -- 62
2020-01-16 15:00:00 13 13 Sudoeste 22 Oeste 0 -- -- 63
2020-01-16 14:00:00 12.5 13 Oeste 21 Oeste 0 -- -- 71
2020-01-16 13:00:00 13 14 Sur 23 Sur 0 -- -- 69
2020-01-16 12:00:00 11.3 16 Sudoeste 21 Sur 0 -- -- 77
2020-01-16 11:00:00 9.3 17 Sudoeste 34 Sur 0 -- -- 87
2020-01-16 10:00:00 6.6 16 Sur 26 Sur 0 -- -- 93
2020-01-16 09:00:00 5.9 16 Sur 22 Sur 0 -- -- 94
2020-01-16 08:00:00 6 17 Sur 24 Sur 0 -- -- 93
2020-01-16 07:00:00 4.8 15 Sur 18 Sur 0 -- -- 95
2020-01-16 06:00:00 3.9 6 Sudoeste 11 Sur 0 -- -- 94
2020-01-16 05:00:00 4.3 8 Sur 18 Sur 0 -- -- 94
2020-01-16 04:00:00 4.9 14 Sudoeste 19 Sudoeste 0 -- -- 93
2020-01-16 03:00:00 5.6 14 Sudoeste 26 Sur 0 -- -- 90
2020-01-16 02:00:00 6.6 21 Sur 27 Sur 0 -- -- 90
2020-01-16 01:00:00 6.1 19 Sur 26 Sur 0 -- -- 90
2020-01-16 00:00:00 6.3 12 Sudeste 25 Sur 0 -- -- 89
2020-01-15 23:00:00 6.5 19 Sur 28 Sur 0 -- -- 89
2020-01-15 22:00:00 7.1 22 Sur 26 Sur 0 -- -- 88
2020-01-15 21:00:00 7.2 11 Sudeste 18 Sur 0 -- -- 90
2020-01-15 20:00:00 8.5 10 Sudoeste 13 Sudoeste 0 -- -- 91
2020-01-15 19:00:00 9 9 Sudoeste 23 Oeste 0 -- -- 90
2020-01-15 18:00:00 9.7 14 Oeste 33 Oeste 0 -- -- 87
2020-01-15 17:00:00 10.4 22 Sudoeste 38 Sudoeste 0 -- -- 85
2020-01-15 16:00:00 9.9 19 Sudoeste 26 Sudoeste 0 -- -- 87
2020-01-15 15:00:00 9.9 15 Sudoeste 28 Sudoeste 0 -- -- 88
2020-01-15 14:00:00 8 12 Sur 21 Sur 0 -- -- 92
2020-01-15 13:00:00 6.6 3 Sudeste 22 Noroeste 0.8 -- -- 95
2020-01-15 12:00:00 6.8 9 Oeste 29 Sur 1 -- -- 89
2020-01-15 11:00:00 7.7 21 Sur 27 Sur 0 -- -- 77
2020-01-15 10:00:00 6.1 16 Sur 28 Sur 0 -- -- 79
2020-01-15 09:00:00 5.8 15 Sur 27 Sur 0 -- -- 78
2020-01-15 08:00:00 4.8 18 Sur 23 Sur 0 -- -- 85
2020-01-15 07:00:00 4.2 13 Sudeste 29 Sudoeste 0 -- -- 86
2020-01-15 06:00:00 3.2 13 Sur 14 Sur 0 -- -- 91
2020-01-15 05:00:00 3.6 9 Sur 10 Sur 0 -- -- 85
2020-01-15 04:00:00 4.2 12 Sur 19 Sur 0 -- -- 87
2020-01-15 03:00:00 4.1 13 Sur 22 Sur 0 -- -- 86
2020-01-15 02:00:00 3.7 8 Sudoeste 26 Sudoeste 0 -- -- 86
2020-01-15 01:00:00 4.1 17 Sur 22 Sur 0 -- -- 86
2020-01-15 00:00:00 4 18 Sur 24 Sur 0 -- -- 85
2020-01-14 23:00:00 3.9 17 Sur 27 Sur 0 -- -- 84
2020-01-14 22:00:00 4.1 15 Sur 21 Sur 0 -- -- 81
2020-01-14 21:00:00 5.4 11 Sur 23 Sudoeste 0 -- -- 85
2020-01-14 20:00:00 5.5 19 Sudoeste 26 Sudoeste 0 -- -- 86
2020-01-14 19:00:00 5.2 16 Sudoeste 24 Sudoeste 0 -- -- 83
2020-01-14 18:00:00 7.4 18 Sudoeste 31 Sudoeste 0 -- -- 77
2020-01-14 17:00:00 9.3 24 Sudoeste 36 Sudoeste 0 -- -- 72
2020-01-14 16:00:00 9.4 15 Oeste 34 Sudoeste 0 -- -- 68
2020-01-14 15:00:00 9.2 20 Sudoeste 45 Oeste 0 -- -- 67
2020-01-14 14:00:00 8.9 21 Sudoeste 30 Sudoeste 0 -- -- 70
2020-01-14 13:00:00 7.5 18 Sudoeste 24 Sudoeste 0 -- -- 73
2020-01-14 12:00:00 4 18 Sur 26 Sur 0 -- -- 84
2020-01-14 11:00:00 0.7 19 Sur 30 Sur 0 -- -- 89
2020-01-14 10:00:00 0.2 18 Sur 23 Sur 0 -- -- 91
2020-01-14 09:00:00 -1.6 18 Sur 22 Sur 0 -- -- 94
2020-01-14 08:00:00 -1.8 12 Sur 17 Sur 0 -- -- 95
2020-01-14 07:00:00 -2.5 12 Sur 17 Sur 0 -- -- 94
2020-01-14 06:00:00 -1.7 5 Sudeste 9 Sur 0 -- -- 93
2020-01-14 05:00:00 -2 7 Sur 8 Sudeste 0 -- -- 95
2020-01-14 04:00:00 -1.4 5 Sudeste 13 Sur 0 -- -- 92
2020-01-14 03:00:00 -1.1 12 Sur 17 Sur 0 -- -- 94
2020-01-14 02:00:00 -0.8 10 Sur 19 Sur 0 -- -- 93
2020-01-14 01:00:00 -0.6 12 Sudoeste 20 Sudoeste 0 -- -- 90
2020-01-14 00:00:00 -0.4 13 Sudoeste 19 Sudoeste 0 -- -- 89
2020-01-13 23:00:00 0.2 14 Sudoeste 21 Sudoeste 0 -- -- 88
2020-01-13 22:00:00 1.1 17 Sudoeste 24 Sudoeste 0 -- -- 82
2020-01-13 21:00:00 0.5 14 Sudoeste 17 Sudoeste 0 -- -- 86
2020-01-13 20:00:00 2.7 14 Sur 16 Sur 0 -- -- 80
2020-01-13 19:00:00 4.3 3 Sudoeste 9 Sudoeste 0 -- -- 76
2020-01-13 18:00:00 6.7 6 Sudoeste 13 Sur 0 -- -- 74
2020-01-13 17:00:00 8.1 9 Sur 14 Sur 0 -- -- 68
2020-01-13 16:00:00 7.1 4 Sur 12 Sur 0 -- -- 77
2020-01-13 15:00:00 4.7 2 Sudeste 9 Sur 0 -- -- 97
2020-01-13 14:00:00 2.3 2 Sur 8 Noroeste 0 -- -- 100
2020-01-13 13:00:00 0.7 7 Sur 12 Sur 0 -- -- 100
2020-01-13 12:00:00 -2.2 0 Calma -- -- 0.2 -- -- 99
2020-01-13 11:00:00 -3.9 0 Calma -- -- 0 -- -- 98
2020-01-13 10:00:00 -4.8 0 Calma -- -- 0 -- -- 97
2020-01-13 09:00:00 -4.9 0 Calma -- -- 0 -- -- 97
2020-01-13 08:00:00 -4.3 0 Calma -- -- 0 -- -- 97
2020-01-13 07:00:00 -3.8 0 Calma -- -- 0 -- -- 98
2020-01-13 06:00:00 -4 0 Calma -- -- 0 -- -- 97
2020-01-13 05:00:00 -3.7 0 Calma -- -- 0 -- -- 98
2020-01-13 04:00:00 -3.6 0 Calma -- -- 0 -- -- 98
2020-01-13 03:00:00 -3.4 0 Calma -- -- 0 -- -- 99
2020-01-13 02:00:00 -3.1 0 Calma -- -- 0 -- -- 99
2020-01-13 01:00:00 -2.4 0 Calma -- -- 0 -- -- 99
2020-01-13 00:00:00 -2.6 0 Calma -- -- 0 -- -- 99
2020-01-12 23:00:00 -2.8 0 Calma 7 Noroeste 0 -- -- 99
2020-01-12 22:00:00 -2.3 5 Noroeste 9 Noroeste 0 -- -- 99
2020-01-12 21:00:00 -1.6 6 Noroeste 9 Noroeste 0 -- -- 99
2020-01-12 20:00:00 -0.7 4 Noroeste 8 Noroeste 0 -- -- 99
2020-01-12 19:00:00 -0.7 6 Noroeste 10 Noroeste 0 -- -- 99
2020-01-12 18:00:00 -0.1 6 Noroeste 10 Noroeste 0 -- -- 99
2020-01-12 17:00:00 1 6 Noroeste 12 Noroeste 0 -- -- 99
2020-01-12 16:00:00 1.2 6 Noroeste 10 Noroeste 0 -- -- 99
2020-01-12 15:00:00 1.1 4 Noroeste 10 Noroeste 0 -- -- 100
2020-01-12 14:00:00 -0.6 0 Calma -- -- 0 -- -- 99
2020-01-12 13:00:00 -2 0 Calma -- -- 0 -- -- 99
2020-01-12 12:00:00 -2.5 0 Calma -- -- 0.2 -- -- 99
2020-01-12 11:00:00 -2.9 0 Calma -- -- 0 -- -- 98
2020-01-12 10:00:00 -4.5 0 Calma -- -- 0 -- -- 98
2020-01-12 09:00:00 -6 0 Calma -- -- 0 -- -- 96
2020-01-12 08:00:00 -5.2 0 Calma -- -- 0 -- -- 97
2020-01-12 07:00:00 -4.8 0 Calma -- -- 0 -- -- 97
2020-01-12 06:00:00 -4.6 0 Calma -- -- 0 -- -- 97
2020-01-12 05:00:00 -4.3 0 Calma -- -- 0 -- -- 97
2020-01-12 04:00:00 -3.8 0 Calma -- -- 0 -- -- 98
2020-01-12 03:00:00 -3.5 0 Calma -- -- 0 -- -- 98
2020-01-12 02:00:00 -3.2 0 Calma -- -- 0 -- -- 98
2020-01-12 01:00:00 -2.9 0 Calma -- -- 0 -- -- 99
2020-01-12 00:00:00 -2.8 0 Calma -- -- 0 -- -- 99
2020-01-11 23:00:00 -2.6 0 Calma -- -- 0 -- -- 98
2020-01-11 22:00:00 -2.4 0 Calma 12 Sudeste 0 -- -- 98
2020-01-11 21:00:00 -1.8 3 Sudeste 8 Este 0 -- -- 98
2020-01-11 20:00:00 -1.5 4 Este 10 Este 0 -- -- 97
2020-01-11 19:00:00 -0.7 4 Nordeste 12 Nordeste 0 -- -- 97
2020-01-11 18:00:00 0.2 5 Nordeste 8 Nordeste 0 -- -- 96
2020-01-11 17:00:00 0.9 5 Este 10 Este 0 -- -- 97
2020-01-11 16:00:00 1 3 Nordeste 10 Norte 0 -- -- 98
2020-01-11 15:00:00 0.9 3 Nordeste 7 Nordeste 0 -- -- 98
2020-01-11 14:00:00 1 3 Este 9 Sudeste 0 -- -- 99
2020-01-11 13:00:00 0.3 3 Este 7 Sudeste 0 -- -- 99
2020-01-11 12:00:00 -0.3 0 Calma 0 Calma 0 -- -- 99
2020-01-11 11:00:00 -0.6 0 Calma -- -- 0 -- -- 98
2020-01-11 10:00:00 -1.4 0 Calma 9 Sudeste 0 -- -- 98
2020-01-11 09:00:00 -2.5 8 Sudeste 9 Sudeste 0 -- -- 98
2020-01-11 08:00:00 -3.4 6 Este 13 Sudeste 0 -- -- 97
2020-01-11 07:00:00 -3.3 6 Sudeste 9 Sudeste 0 -- -- 95
2020-01-11 06:00:00 -2.3 0 Calma 5 Sur 0 -- -- 96
2020-01-11 05:00:00 -2.1 6 Sudeste 8 Sudeste 0 -- -- 95
2020-01-11 04:00:00 -1.5 3 Sudoeste 6 Noroeste 0 -- -- 94
2020-01-11 03:00:00 0.5 3 Noroeste 8 Nordeste 0 -- -- 92
2020-01-11 02:00:00 0.5 0 Calma 11 Norte 0 -- -- 93
2020-01-11 01:00:00 0.7 2 Norte 4 Norte 0 -- -- 91
2020-01-11 00:00:00 1.3 2 Nordeste 4 Nordeste 0 -- -- 89
2020-01-10 23:00:00 1.9 0 Calma 5 Este 0 -- -- 87
2020-01-10 22:00:00 3 5 Nordeste 10 Este 0 -- -- 83
2020-01-10 21:00:00 4.1 8 Este 12 Nordeste 0 -- -- 79
2020-01-10 20:00:00 5.1 4 Nordeste 9 Nordeste 0 -- -- 75
2020-01-10 19:00:00 6 5 Nordeste 10 Norte 0 -- -- 73
2020-01-10 18:00:00 6.9 7 Norte 16 Nordeste 0 -- -- 69
2020-01-10 17:00:00 7.7 7 Nordeste 17 Norte 0 -- -- 66
2020-01-10 16:00:00 8 8 Norte 17 Este 0 -- -- 67
2020-01-10 15:00:00 7.8 10 Nordeste 18 Este 0 -- -- 66
2020-01-10 14:00:00 6.7 3 Norte 17 Este 0 -- -- 73
2020-01-10 13:00:00 5.5 3 Sudeste 8 Nordeste 0 -- -- 80
2020-01-10 12:00:00 3.4 3 Norte 6 Nordeste 0 -- -- 89
2020-01-10 11:00:00 1.4 4 Oeste 6 Oeste 0.2 -- -- 98
2020-01-10 10:00:00 -0.6 5 Sudoeste 8 Sudoeste 0 -- -- 98
2020-01-10 09:00:00 -1.6 6 Sudoeste 9 Sudoeste 0 -- -- 98
2020-01-10 08:00:00 -1.5 6 Sudoeste 8 Oeste 0 -- -- 98
2020-01-10 07:00:00 -0.9 4 Oeste 13 Oeste 0 -- -- 98
2020-01-10 06:00:00 -0.4 7 Oeste 12 Oeste 0 -- -- 98
2020-01-10 05:00:00 0.3 8 Oeste 12 Oeste 0 -- -- 97
2020-01-10 04:00:00 0.9 7 Oeste 11 Oeste 0 -- -- 97
2020-01-10 03:00:00 1.2 7 Oeste 15 Oeste 0 -- -- 96
2020-01-10 02:00:00 2.6 6 Oeste 13 Oeste 0 -- -- 94
2020-01-10 01:00:00 4.9 9 Noroeste 25 Noroeste 0 -- -- 92
2020-01-10 00:00:00 5.6 15 Oeste 27 Oeste 0 -- -- 91
2020-01-09 23:00:00 4.9 11 Oeste 20 Oeste 0 -- -- 94
2020-01-09 22:00:00 6.8 14 Oeste 28 Oeste 0 -- -- 89
2020-01-09 21:00:00 8.1 14 Oeste 25 Oeste 0 -- -- 93
2020-01-09 20:00:00 8.9 16 Oeste 27 Oeste 0 -- -- 91
2020-01-09 19:00:00 9.2 13 Oeste 25 Oeste 0 -- -- 90
2020-01-09 18:00:00 10.1 7 Oeste 26 Oeste 0 -- -- 88
2020-01-09 17:00:00 11 15 Oeste 28 Oeste 0 -- -- 84
2020-01-09 16:00:00 10.8 18 Sudoeste 29 Sudoeste 0 -- -- 86
2020-01-09 15:00:00 8.7 21 Sudoeste 27 Sudoeste 0 -- -- 93
2020-01-09 14:00:00 8.6 15 Oeste 27 Sudoeste 0 -- -- 87
2020-01-09 13:00:00 7.9 15 Sudoeste 21 Oeste 0 -- -- 76
2020-01-09 12:00:00 5.8 7 Sudoeste 13 Sudoeste 0 -- -- 82
2020-01-09 11:00:00 3.4 8 Sudoeste 16 Sur 0 -- -- 91
2020-01-09 10:00:00 1.2 8 Sur 17 Sur 0 -- -- 93
2020-01-09 09:00:00 -0.3 8 Sudoeste 12 Sudoeste 0 -- -- 95
2020-01-09 08:00:00 -0.2 8 Sur 15 Sudeste 0 -- -- 97
2020-01-09 07:00:00 -0.1 12 Sur 16 Sur 0 -- -- 97
2020-01-09 06:00:00 0 5 Sudoeste 6 Sudoeste 0 -- -- 97
2020-01-09 05:00:00 -0.1 4 Sudoeste 14 Sur 0 -- -- 96
2020-01-09 04:00:00 0 12 Sur 14 Sur 0 -- -- 96
2020-01-09 03:00:00 -0.1 9 Sur 11 Sur 0 -- -- 96
2020-01-09 02:00:00 1 0 Calma 3 Este 0 -- -- 96
2020-01-09 01:00:00 1.3 3 Oeste 7 Oeste 0 -- -- 96
2020-01-09 00:00:00 1.5 5 Oeste 7 Sudoeste 0 -- -- 94
2020-01-08 23:00:00 1.4 6 Sudoeste 7 Sudoeste 0 -- -- 93
2020-01-08 22:00:00 2.7 4 Sur 5 Sur 0 -- -- 79
2020-01-08 21:00:00 3.3 0 Calma 2 Oeste 0 -- -- 86
2020-01-08 20:00:00 3.4 0 Calma 4 Nordeste 0 -- -- 88
2020-01-08 19:00:00 4.2 0 Calma 5 Noroeste 0 -- -- 88
2020-01-08 18:00:00 5.3 2 Norte 8 Noroeste 0 -- -- 86
2020-01-08 17:00:00 6.1 4 Noroeste 8 Noroeste 0 -- -- 74
2020-01-08 16:00:00 5 3 Noroeste 13 Norte 0 -- -- 88
2020-01-08 15:00:00 3.4 9 Norte 14 Norte 0 -- -- 93
2020-01-08 14:00:00 2 4 Noroeste 11 Noroeste 0 -- -- 99
2020-01-08 13:00:00 1.3 8 Noroeste 13 Noroeste 0 -- -- 100
2020-01-08 12:00:00 0 3 Noroeste 6 Noroeste 0 -- -- 100
2020-01-08 11:00:00 -1.8 0 Calma -- -- 0.2 -- -- 100
2020-01-08 10:00:00 -3.7 0 Calma -- -- 0 -- -- 98
2020-01-08 09:00:00 -3.8 0 Calma -- -- 0 -- -- 98
2020-01-08 08:00:00 -3.9 0 Calma -- -- 0 -- -- 98
2020-01-08 07:00:00 -3.8 0 Calma -- -- 0 -- -- 98
2020-01-08 06:00:00 -3.7 0 Calma -- -- 0 -- -- 98
2020-01-08 05:00:00 -4 0 Calma -- -- 0 -- -- 98
2020-01-08 04:00:00 -4.2 0 Calma -- -- 0 -- -- 97
2020-01-08 03:00:00 -3.8 0 Calma -- -- 0 -- -- 99
2020-01-08 02:00:00 -3.3 0 Calma -- -- 0 -- -- 99
2020-01-08 01:00:00 -2.6 0 Calma -- -- 0 -- -- 99
2020-01-08 00:00:00 -2.3 0 Calma -- -- 0 -- -- 99
2020-01-07 23:00:00 -2.2 0 Calma -- -- 0 -- -- 99
2020-01-07 22:00:00 -1.9 0 Calma 7 Norte 0 -- -- 99
2020-01-07 21:00:00 -1.9 5 Norte 7 Norte 0 -- -- 99
2020-01-07 20:00:00 -2 3 Norte 6 Norte 0 -- -- 99
2020-01-07 19:00:00 -1.6 4 Norte 9 Norte 0 -- -- 99
2020-01-07 18:00:00 -0.9 5 Norte 10 Norte 0 -- -- 99
2020-01-07 17:00:00 0 5 Norte 11 Norte 0 -- -- 98
2020-01-07 16:00:00 0.4 5 Noroeste 9 Noroeste 0 -- -- 99
2020-01-07 15:00:00 0.6 2 Noroeste 5 Norte 0 -- -- 100
2020-01-07 14:00:00 -0.8 0 Calma -- -- 0 -- -- 100
2020-01-07 13:00:00 -1.8 0 Calma -- -- 0.2 -- -- 99
2020-01-07 12:00:00 -2.2 0 Calma -- -- 0 -- -- 99
2020-01-07 11:00:00 -2.8 0 Calma -- -- 0 -- -- 99
2020-01-07 10:00:00 -2.8 0 Calma -- -- 0 -- -- 99
2020-01-07 09:00:00 -2.7 0 Calma -- -- 0 -- -- 99
2020-01-07 08:00:00 -3 0 Calma -- -- 0 -- -- 99
2020-01-07 07:00:00 -3.2 0 Calma -- -- 0 -- -- 99
2020-01-07 06:00:00 -2.7 0 Calma -- -- 0 -- -- 99
2020-01-07 05:00:00 -2.7 0 Calma -- -- 0 -- -- 99
2020-01-07 04:00:00 -2.7 0 Calma -- -- 0 -- -- 99
2020-01-07 03:00:00 -2.5 0 Calma -- -- 0 -- -- 99
2020-01-07 02:00:00 -2.2 0 Calma -- -- 0 -- -- 99
2020-01-07 01:00:00 -2.5 0 Calma 6 Noroeste 0 -- -- 99
2020-01-07 00:00:00 -2.5 0 Calma 3 Noroeste 0 -- -- 99
2020-01-06 23:00:00 -2.5 0 Calma 6 Noroeste 0 -- -- 99
2020-01-06 22:00:00 -2 3 Noroeste 8 Noroeste 0 -- -- 99
2020-01-06 21:00:00 -1.6 2 Noroeste 10 Noroeste 0 -- -- 99
2020-01-06 20:00:00 -1.2 5 Noroeste 9 Noroeste 0 -- -- 99
2020-01-06 19:00:00 -0.8 5 Noroeste 12 Noroeste 0 -- -- 99
2020-01-06 18:00:00 -0.4 6 Noroeste 10 Noroeste 0 -- -- 98
2020-01-06 17:00:00 0.5 8 Noroeste 12 Noroeste 0 -- -- 98
2020-01-06 16:00:00 1.6 6 Norte 16 Norte 0 -- -- 98
2020-01-06 15:00:00 2 4 Nordeste 8 Este 0 -- -- 100
2020-01-06 14:00:00 0 0 Calma 4 Nordeste 0 -- -- 100
2020-01-06 13:00:00 -0.7 0 Calma -- -- 0.2 -- -- 100
2020-01-06 12:00:00 -1.7 0 Calma -- -- 0 -- -- 99
2020-01-06 11:00:00 -2.5 0 Calma -- -- 0 -- -- 99
2020-01-06 10:00:00 -2.8 0 Calma -- -- 0 -- -- 99